Time;durP1;ratioP1;P1;durP2;ratioP2;P2;SDS_P1;SDS_P2;PMS_P1;PMS_P2;Temp;Humidity;BMP_temperature;BMP_pressure;BME280_temperature;BME280_humidity;BME280_pressure;Samples;Min_cycle;Max_cycle;Signal;HPM_P1;HPM_P2
2021/11/05 00:00:54;;;;;;;2.30;2.07;;;3.60;99.90;;;;;;2083100;28;20183;-65
2021/11/05 00:01:55;;;;;;;2.40;2.20;;;3.60;99.90;;;;;;2085916;28;20183;-64
2021/11/05 00:02:57;;;;;;;2.63;2.07;;;3.60;99.90;;;;;;2081758;28;20189;-64
2021/11/05 00:03:58;;;;;;;2.22;2.03;;;3.60;99.90;;;;;;2081708;28;20667;-65
2021/11/05 00:04:59;;;;;;;2.23;2.00;;;3.60;99.90;;;;;;2083783;28;20211;-67
2021/11/05 00:05:59;;;;;;;2.20;2.00;;;3.60;99.90;;;;;;2085583;28;20188;-65
2021/11/05 00:07:00;;;;;;;2.50;2.30;;;3.60;99.90;;;;;;2081598;28;20654;-66
2021/11/05 00:08:07;;;;;;;2.17;1.97;;;3.60;99.90;;;;;;2080791;28;20200;-68
2021/11/05 00:09:07;;;;;;;2.15;1.85;;;3.60;99.90;;;;;;2084498;28;20554;-65
2021/11/05 00:10:08;;;;;;;2.77;1.97;;;3.60;99.90;;;;;;2084227;28;20204;-67
2021/11/05 00:11:09;;;;;;;3.20;2.50;;;3.60;99.90;;;;;;2081836;28;20245;-66
2021/11/05 00:12:10;;;;;;;2.20;2.00;;;3.60;99.90;;;;;;2081887;28;20193;-66
2021/11/05 00:13:11;;;;;;;2.93;2.00;;;3.60;99.90;;;;;;2085314;28;20483;-65
2021/11/05 00:14:12;;;;;;;2.30;1.70;;;3.60;99.90;;;;;;2083725;28;20274;-65
2021/11/05 00:15:14;;;;;;;3.03;1.80;;;3.60;99.90;;;;;;2081385;28;20185;-64
2021/11/05 00:16:14;;;;;;;2.47;1.80;;;3.60;99.90;;;;;;2081767;28;20189;-65
2021/11/05 00:17:15;;;;;;;3.90;2.10;;;3.60;99.90;;;;;;2085490;28;20530;-66
2021/11/05 00:18:16;;;;;;;1.70;1.60;;;3.60;99.90;;;;;;2083008;28;20190;-66
2021/11/05 00:19:17;;;;;;;2.13;1.93;;;3.60;99.90;;;;;;2081669;28;20179;-65
2021/11/05 00:20:18;;;;;;;1.77;1.67;;;3.60;99.90;;;;;;2081509;28;20182;-64
2021/11/05 00:21:19;;;;;;;4.28;2.10;;;3.60;99.90;;;;;;2085986;28;20203;-63
2021/11/05 00:22:19;;;;;;;2.00;1.73;;;3.60;99.90;;;;;;2082713;28;20249;-65
2021/11/05 00:23:20;;;;;;;2.07;1.70;;;3.60;99.90;;;;;;2081536;28;20184;-66
2021/11/05 00:24:21;;;;;;;1.90;1.70;;;3.60;99.90;;;;;;2081591;28;20271;-66
2021/11/05 00:25:23;;;;;;;1.70;1.60;;;3.70;99.90;;;;;;2086631;28;20596;-66
2021/11/05 00:26:24;;;;;;;2.00;1.65;;;3.70;99.90;;;;;;2082065;28;20643;-64
2021/11/05 00:27:24;;;;;;;1.70;1.50;;;3.70;99.90;;;;;;2081261;28;20189;-63
2021/11/05 00:28:25;;;;;;;3.47;2.00;;;3.80;99.90;;;;;;2081420;28;20606;-67
2021/11/05 00:29:26;;;;;;;2.00;1.80;;;3.80;99.90;;;;;;2087147;28;20184;-66
2021/11/05 00:30:26;;;;;;;1.60;1.50;;;3.70;99.90;;;;;;2081449;28;20604;-64
2021/11/05 00:31:27;;;;;;;1.43;1.33;;;3.80;99.90;;;;;;2081345;28;20258;-64
2021/11/05 00:32:28;;;;;;;2.17;1.90;;;3.80;99.90;;;;;;2081739;28;20180;-65
2021/11/05 00:33:28;;;;;;;2.00;1.80;;;3.80;99.90;;;;;;2087352;28;20187;-65
2021/11/05 00:34:29;;;;;;;1.80;1.60;;;3.80;99.90;;;;;;2081594;28;20180;-66
2021/11/05 00:35:30;;;;;;;2.00;1.80;;;3.80;99.90;;;;;;2081331;28;20266;-67
2021/11/05 00:36:31;;;;;;;2.43;1.90;;;3.80;99.90;;;;;;2081495;28;20693;-66
2021/11/05 00:37:31;;;;;;;2.87;1.80;;;3.80;99.90;;;;;;2087012;28;20200;-66
2021/11/05 00:38:32;;;;;;;2.80;2.10;;;3.80;99.90;;;;;;2081683;28;20180;-63
2021/11/05 00:39:33;;;;;;;2.40;1.83;;;3.80;99.90;;;;;;2081276;28;20474;-66
2021/11/05 00:40:34;;;;;;;2.15;1.60;;;3.80;99.90;;;;;;2081240;28;20176;-68
2021/11/05 00:41:35;;;;;;;1.90;1.70;;;3.80;99.90;;;;;;2086848;28;20176;-63
2021/11/05 00:42:36;;;;;;;2.30;2.00;;;3.80;99.90;;;;;;2081534;28;20258;-64
2021/11/05 00:43:37;;;;;;;2.10;1.80;;;3.90;99.90;;;;;;2081440;28;20179;-64
2021/11/05 00:44:38;;;;;;;1.90;1.63;;;3.80;99.90;;;;;;2081620;28;20177;-65
2021/11/05 00:45:39;;;;;;;3.00;2.30;;;3.80;99.90;;;;;;2087363;28;20187;-65
2021/11/05 00:46:39;;;;;;;4.73;2.00;;;3.80;99.90;;;;;;2081658;28;20631;-64
2021/11/05 00:47:40;;;;;;;2.47;2.10;;;3.90;99.90;;;;;;2081205;28;20211;-64
2021/11/05 00:48:41;;;;;;;1.87;1.73;;;3.90;99.90;;;;;;2081383;28;20180;-65
2021/11/05 00:49:43;;;;;;;2.23;1.90;;;3.90;99.90;;;;;;2087213;28;20483;-66
2021/11/05 00:50:44;;;;;;;2.35;1.70;;;3.90;99.90;;;;;;2080481;28;20267;-67
2021/11/05 00:51:45;;;;;;;2.00;1.80;;;3.90;99.90;;;;;;2080627;28;20192;-66
2021/11/05 00:52:45;;;;;;;2.17;1.97;;;3.90;99.90;;;;;;2081388;28;20290;-66
2021/11/05 00:53:46;;;;;;;2.33;1.70;;;3.80;99.90;;;;;;2087197;28;20187;-66
2021/11/05 00:54:47;;;;;;;2.40;2.00;;;3.80;99.90;;;;;;2081389;28;20900;-66
2021/11/05 00:55:48;;;;;;;2.50;2.20;;;3.80;99.90;;;;;;2081351;28;20215;-65
2021/11/05 00:56:48;;;;;;;2.40;2.20;;;3.80;99.90;;;;;;2081632;28;20186;-66
2021/11/05 00:57:50;;;;;;;2.40;2.20;;;3.90;99.90;;;;;;2086477;28;20208;-67
2021/11/05 00:58:51;;;;;;;2.80;2.35;;;3.80;99.90;;;;;;2081291;28;20184;-66
2021/11/05 00:59:51;;;;;;;2.97;2.30;;;3.90;99.90;;;;;;2081375;28;20188;-64
2021/11/05 01:00:52;;;;;;;2.60;2.30;;;3.90;99.90;;;;;;2081078;28;20180;-67
2021/11/05 01:01:53;;;;;;;2.47;2.13;;;3.90;99.90;;;;;;2081363;28;20385;-64
2021/11/05 01:02:54;;;;;;;2.17;1.97;;;3.90;99.90;;;;;;2080901;28;20230;-65
2021/11/05 01:03:54;;;;;;;2.40;2.20;;;3.90;99.90;;;;;;2081333;28;20419;-65
2021/11/05 01:04:55;;;;;;;2.30;2.10;;;3.90;99.90;;;;;;2081690;28;20191;-64
2021/11/05 01:05:55;;;;;;;2.57;2.37;;;3.90;99.90;;;;;;2081840;28;20365;-64
2021/11/05 01:06:56;;;;;;;2.13;1.93;;;3.90;99.90;;;;;;2079790;28;20268;-65
2021/11/05 01:07:57;;;;;;;2.00;1.80;;;3.80;99.90;;;;;;2081697;28;20267;-65
2021/11/05 01:08:58;;;;;;;3.00;2.40;;;3.80;99.80;;;;;;2081293;28;20208;-65
2021/11/05 01:09:58;;;;;;;2.77;2.07;;;3.80;99.90;;;;;;2081475;28;20543;-65
2021/11/05 01:10:59;;;;;;;2.20;2.00;;;3.90;99.90;;;;;;2081395;28;20180;-65
2021/11/05 01:12:00;;;;;;;2.20;2.00;;;3.90;99.90;;;;;;2081511;28;20190;-64
2021/11/05 01:13:02;;;;;;;3.20;2.10;;;3.90;99.90;;;;;;2081611;28;20188;-65
2021/11/05 01:14:03;;;;;;;2.40;2.20;;;3.90;99.90;;;;;;2081725;28;20267;-65
2021/11/05 01:15:06;;;;;;;2.95;2.20;;;3.90;99.90;;;;;;2081541;28;20274;-65
2021/11/05 01:16:07;;;;;;;3.40;2.35;;;3.90;99.90;;;;;;2081490;28;20195;-65
2021/11/05 01:17:08;;;;;;;2.33;2.13;;;3.90;99.90;;;;;;2081396;28;20672;-65
2021/11/05 01:18:09;;;;;;;2.50;2.20;;;3.90;99.90;;;;;;2081772;28;20208;-64
2021/11/05 01:19:09;;;;;;;2.40;1.97;;;3.80;99.10;;;;;;2081357;28;20208;-64
2021/11/05 01:20:14;;;;;;;2.30;2.10;;;3.70;99.10;;;;;;2081377;28;20191;-65
2021/11/05 01:21:16;;;;;;;2.13;1.85;;;3.70;99.40;;;;;;2081255;28;20176;-65
2021/11/05 01:22:17;;;;;;;2.45;1.90;;;3.70;99.50;;;;;;2081660;28;20553;-65
2021/11/05 01:23:21;;;;;;;2.08;1.88;;;3.60;99.60;;;;;;2081477;28;20193;-65
2021/11/05 01:24:22;;;;;;;2.20;1.80;;;3.60;99.90;;;;;;2080429;28;20246;-65
2021/11/05 01:25:22;;;;;;;2.20;1.70;;;3.60;99.80;;;;;;2080175;28;20615;-64
2021/11/05 01:26:23;;;;;;;2.07;1.87;;;3.60;99.90;;;;;;2080559;28;20207;-65
2021/11/05 01:27:24;;;;;;;2.00;1.80;;;3.50;99.90;;;;;;2080257;28;20180;-65
2021/11/05 01:28:24;;;;;;;2.10;1.90;;;3.50;99.90;;;;;;2081281;28;20176;-65
2021/11/05 01:29:25;;;;;;;1.90;1.70;;;3.50;99.90;;;;;;2081530;28;20181;-65
2021/11/05 01:30:26;;;;;;;1.80;1.70;;;3.60;99.90;;;;;;2081480;28;20180;-65
2021/11/05 01:31:27;;;;;;;2.17;1.90;;;3.60;99.90;;;;;;2081239;28;20195;-65
2021/11/05 01:32:28;;;;;;;2.10;1.83;;;3.60;99.70;;;;;;2081324;28;20176;-66
2021/11/05 01:33:29;;;;;;;2.20;2.00;;;3.70;99.70;;;;;;2081636;28;20174;-65
2021/11/05 01:34:30;;;;;;;2.90;2.28;;;3.70;99.80;;;;;;2081288;28;20180;-65
2021/11/05 01:35:31;;;;;;;2.40;1.83;;;3.70;99.90;;;;;;2081434;28;20227;-66
2021/11/05 01:36:32;;;;;;;2.60;2.17;;;3.80;99.90;;;;;;2081398;28;20217;-64
2021/11/05 01:37:33;;;;;;;2.27;1.87;;;3.80;99.90;;;;;;2081465;28;20203;-65
2021/11/05 01:38:33;;;;;;;2.28;2.08;;;3.80;99.90;;;;;;2081415;28;20547;-65
2021/11/05 01:39:34;;;;;;;2.13;1.93;;;3.80;99.70;;;;;;2081544;28;20214;-64
2021/11/05 01:40:38;;;;;;;2.07;1.87;;;3.80;99.80;;;;;;2081471;28;20266;-65
2021/11/05 01:41:40;;;;;;;2.67;2.03;;;3.80;99.90;;;;;;2080454;28;20271;-65
2021/11/05 01:42:42;;;;;;;2.25;2.05;;;3.80;99.90;;;;;;2080758;28;20320;-64
2021/11/05 01:43:47;;;;;;;2.63;1.98;;;3.80;99.60;;;;;;2081398;28;20208;-65
2021/11/05 01:44:48;;;;;;;2.13;1.92;;;3.80;99.60;;;;;;2081401;28;20191;-64
2021/11/05 01:45:49;;;;;;;1.93;1.60;;;3.80;99.60;;;;;;2081479;28;20643;-64
2021/11/05 01:46:50;;;;;;;1.85;1.65;;;3.70;99.40;;;;;;2081464;28;20430;-65
2021/11/05 01:47:51;;;;;;;1.92;1.75;;;3.70;99.30;;;;;;2081344;28;20211;-65
2021/11/05 01:48:51;;;;;;;1.43;1.33;;;3.70;99.50;;;;;;2081277;28;20191;-65
2021/11/05 01:49:52;;;;;;;1.80;1.60;;;3.70;99.60;;;;;;2081000;28;20604;-65
2021/11/05 01:50:54;;;;;;;1.83;1.60;;;3.70;99.70;;;;;;2081082;28;20188;-64
2021/11/05 01:51:56;;;;;;;1.40;1.30;;;3.70;99.60;;;;;;2081131;28;20647;-65
2021/11/05 01:52:58;;;;;;;2.28;1.40;;;3.70;99.40;;;;;;2081369;28;20188;-65
2021/11/05 01:53:58;;;;;;;1.45;1.35;;;3.70;99.10;;;;;;2081384;28;20195;-65
2021/11/05 01:54:59;;;;;;;1.47;1.37;;;3.70;99.10;;;;;;2081098;28;20275;-65
2021/11/05 01:56:00;;;;;;;1.30;1.20;;;3.70;99.10;;;;;;2081389;28;20671;-65
2021/11/05 01:57:01;;;;;;;1.47;1.30;;;3.70;99.10;;;;;;2088822;28;20612;-65
2021/11/05 01:58:02;;;;;;;1.30;1.20;;;3.70;99.00;;;;;;2088995;28;20199;-65
2021/11/05 01:59:03;;;;;;;1.43;1.30;;;3.70;98.90;;;;;;2081197;28;20560;-65
2021/11/05 02:00:07;;;;;;;1.33;1.23;;;3.60;99.10;;;;;;2081270;28;20189;-64
2021/11/05 02:01:08;;;;;;;1.80;1.45;;;3.60;99.20;;;;;;2080973;28;20326;-65
2021/11/05 02:02:09;;;;;;;1.52;1.42;;;3.60;98.90;;;;;;2081341;28;20575;-65
2021/11/05 02:03:10;;;;;;;1.50;1.40;;;3.60;98.80;;;;;;2081225;28;20279;-65
2021/11/05 02:04:11;;;;;;;2.35;1.63;;;3.60;98.70;;;;;;2081448;28;20189;-65
2021/11/05 02:05:13;;;;;;;1.50;1.40;;;3.60;98.80;;;;;;2081091;28;20260;-65
2021/11/05 02:06:14;;;;;;;1.52;1.42;;;3.60;99.00;;;;;;2080596;28;20196;-65
2021/11/05 02:07:15;;;;;;;2.28;1.55;;;3.60;99.00;;;;;;2080652;28;20182;-65
2021/11/05 02:08:20;;;;;;;1.60;1.50;;;3.70;99.10;;;;;;2088850;28;20183;-65
2021/11/05 02:09:25;;;;;;;1.85;1.70;;;3.70;99.40;;;;;;2081057;28;20213;-65
2021/11/05 02:10:27;;;;;;;2.03;1.80;;;3.70;99.40;;;;;;2081467;28;20180;-65
2021/11/05 02:11:28;;;;;;;1.60;1.50;;;3.70;98.80;;;;;;2080934;28;20198;-65
2021/11/05 02:12:33;;;;;;;2.00;1.80;;;3.60;98.70;;;;;;2081388;28;20262;-65
2021/11/05 02:13:37;;;;;;;1.85;1.38;;;3.70;98.70;;;;;;2081347;28;20262;-65
2021/11/05 02:14:42;;;;;;;2.05;1.50;;;3.70;98.70;;;;;;2080729;28;20616;-65
2021/11/05 02:15:43;;;;;;;1.70;1.45;;;3.60;98.80;;;;;;2080711;28;20215;-65
2021/11/05 02:16:47;;;;;;;2.13;1.47;;;3.60;99.00;;;;;;2080548;28;20188;-65
2021/11/05 02:17:48;;;;;;;1.42;1.10;;;3.60;98.80;;;;;;2080466;28;20202;-65
2021/11/05 02:18:51;;;;;;;1.55;1.45;;;3.60;98.70;;;;;;2081353;28;20179;-65
2021/11/05 02:19:52;;;;;;;1.52;1.40;;;3.60;98.80;;;;;;2081236;28;20694;-65
2021/11/05 02:20:56;;;;;;;1.30;1.20;;;3.60;98.90;;;;;;2081136;28;20652;-64
2021/11/05 02:21:59;;;;;;;1.98;1.52;;;3.60;99.00;;;;;;2080831;28;20184;-65
2021/11/05 02:23:00;;;;;;;4.22;1.50;;;3.60;99.10;;;;;;2081169;28;20207;-65
2021/11/05 02:24:01;;;;;;;1.70;1.60;;;3.60;99.60;;;;;;2081109;28;20176;-65
2021/11/05 02:25:02;;;;;;;1.63;1.50;;;3.60;99.00;;;;;;2081246;28;20192;-65
2021/11/05 02:26:03;;;;;;;1.83;1.40;;;3.60;98.80;;;;;;2081225;28;20644;-65
2021/11/05 02:27:04;;;;;;;1.33;1.23;;;3.60;99.30;;;;;;2081386;28;20195;-65
2021/11/05 02:28:07;;;;;;;1.75;1.63;;;3.60;99.50;;;;;;2080971;28;20264;-65
2021/11/05 02:29:08;;;;;;;1.70;1.60;;;3.60;99.60;;;;;;2081364;28;20192;-65
2021/11/05 02:30:11;;;;;;;2.42;1.50;;;3.70;99.90;;;;;;2081152;28;20243;-65
2021/11/05 02:31:12;;;;;;;1.70;1.45;;;3.70;99.90;;;;;;2080547;28;20659;-65
2021/11/05 02:32:13;;;;;;;1.40;1.30;;;3.70;99.70;;;;;;2081455;28;20184;-65
2021/11/05 02:33:14;;;;;;;1.87;1.60;;;3.70;99.90;;;;;;2081314;28;20641;-65
2021/11/05 02:34:16;;;;;;;4.07;1.83;;;3.70;99.80;;;;;;2081316;28;20196;-65
2021/11/05 02:35:17;;;;;;;1.60;1.48;;;3.70;99.90;;;;;;2081311;28;20188;-65
2021/11/05 02:36:18;;;;;;;1.73;1.60;;;3.60;99.90;;;;;;2081257;28;20716;-65
2021/11/05 02:37:26;;;;;;;1.43;1.30;;;3.60;99.90;;;;;;2081165;28;20233;-65
2021/11/05 02:38:27;;;;;;;1.67;1.58;;;3.50;99.90;;;;;;2081118;28;20207;-65
2021/11/05 02:39:28;;;;;;;1.77;1.60;;;3.60;99.90;;;;;;2081242;28;20546;-65
2021/11/05 02:40:28;;;;;;;1.70;1.40;;;3.50;99.90;;;;;;2081208;28;20172;-65
2021/11/05 02:41:29;;;;;;;1.90;1.70;;;3.50;99.90;;;;;;2081062;28;20177;-65
2021/11/05 02:42:30;;;;;;;1.60;1.50;;;3.50;99.90;;;;;;2081034;28;20266;-65
2021/11/05 02:43:31;;;;;;;1.67;1.50;;;3.50;99.90;;;;;;2081245;28;20262;-65
2021/11/05 02:44:31;;;;;;;2.55;1.40;;;3.40;99.90;;;;;;2081297;28;20218;-65
2021/11/05 02:45:32;;;;;;;1.57;1.47;;;3.40;99.90;;;;;;2081101;28;20311;-66
2021/11/05 02:46:33;;;;;;;2.07;1.60;;;3.30;99.90;;;;;;2081322;28;20203;-65
2021/11/05 02:47:34;;;;;;;1.77;1.30;;;3.30;99.90;;;;;;2081197;28;20641;-65
2021/11/05 02:48:35;;;;;;;1.63;1.47;;;3.20;99.90;;;;;;2081253;28;20187;-65
2021/11/05 02:49:35;;;;;;;1.50;1.40;;;3.20;99.90;;;;;;2081033;28;20257;-65
2021/11/05 02:50:36;;;;;;;1.33;1.23;;;3.20;99.90;;;;;;2081078;28;20178;-65
2021/11/05 02:51:38;;;;;;;2.00;1.40;;;3.20;99.90;;;;;;2080837;28;20547;-65
2021/11/05 02:52:40;;;;;;;1.85;1.60;;;3.20;99.90;;;;;;2081222;28;20192;-65
2021/11/05 02:53:41;;;;;;;2.10;1.70;;;3.20;99.90;;;;;;2081064;28;20269;-65
2021/11/05 02:54:42;;;;;;;2.15;1.67;;;3.10;99.90;;;;;;2081115;28;20180;-65
2021/11/05 02:55:43;;;;;;;1.40;1.30;;;3.10;99.90;;;;;;2080978;28;20589;-65
2021/11/05 02:56:44;;;;;;;2.10;1.75;;;3.10;99.90;;;;;;2081126;28;20838;-65
2021/11/05 02:57:45;;;;;;;1.77;1.50;;;3.10;99.90;;;;;;2080948;28;20205;-65
2021/11/05 02:58:46;;;;;;;2.88;1.80;;;3.10;99.90;;;;;;2081325;28;20179;-65
2021/11/05 02:59:47;;;;;;;2.73;1.70;;;3.10;99.90;;;;;;2081035;28;20237;-65
2021/11/05 03:00:48;;;;;;;1.90;1.70;;;3.10;99.90;;;;;;2081163;28;20232;-65
2021/11/05 03:01:48;;;;;;;2.10;1.70;;;3.00;99.90;;;;;;2080858;28;20180;-65
2021/11/05 03:02:49;;;;;;;2.23;1.80;;;3.00;99.90;;;;;;2081110;28;20185;-65
2021/11/05 03:03:50;;;;;;;1.47;1.37;;;3.00;99.90;;;;;;2081063;28;20543;-65
2021/11/05 03:04:52;;;;;;;2.05;1.80;;;2.90;99.90;;;;;;2081212;28;20258;-65
2021/11/05 03:05:53;;;;;;;1.67;1.58;;;2.90;99.90;;;;;;2080926;28;20274;-65
2021/11/05 03:07:05;;;;;;;1.83;1.70;;;2.90;99.90;;;;;;2081218;28;20183;-65
2021/11/05 03:08:06;;;;;;;1.80;1.55;;;2.90;99.90;;;;;;2081153;28;20210;-64
2021/11/05 03:09:16;;;;;;;1.70;1.48;;;2.80;99.90;;;;;;2081100;28;20575;-65
2021/11/05 03:10:17;;;;;;;2.13;1.48;;;2.80;99.90;;;;;;2081103;28;20783;-64
2021/11/05 03:11:17;;;;;;;1.63;1.50;;;2.80;99.90;;;;;;2080832;28;20209;-65
2021/11/05 03:12:19;;;;;;;1.73;1.47;;;2.80;99.90;;;;;;2081087;28;20192;-65
2021/11/05 03:13:20;;;;;;;1.80;1.63;;;2.80;99.90;;;;;;2081098;28;20179;-65
2021/11/05 03:14:20;;;;;;;1.60;1.50;;;2.80;99.90;;;;;;2081037;28;20268;-65
2021/11/05 03:15:21;;;;;;;2.17;1.80;;;2.80;99.90;;;;;;2081120;28;20178;-65
2021/11/05 03:16:22;;;;;;;1.73;1.63;;;2.80;99.90;;;;;;2080979;28;20179;-65
2021/11/05 03:17:24;;;;;;;1.67;1.53;;;2.80;99.90;;;;;;2080372;28;20197;-65
2021/11/05 03:18:30;;;;;;;2.08;1.63;;;2.80;99.90;;;;;;2080415;28;20197;-65
2021/11/05 03:19:32;;;;;;;1.58;1.48;;;2.80;99.90;;;;;;2081194;28;20170;-65
2021/11/05 03:20:33;;;;;;;1.90;1.50;;;2.70;99.90;;;;;;2081202;28;20266;-65
2021/11/05 03:21:34;;;;;;;1.50;1.40;;;2.70;99.90;;;;;;2080748;28;20676;-64
2021/11/05 03:22:35;;;;;;;2.38;1.65;;;2.70;99.90;;;;;;2080901;28;20721;-65
2021/11/05 03:23:36;;;;;;;2.37;1.77;;;2.70;99.90;;;;;;2081135;28;20218;-65
2021/11/05 03:24:37;;;;;;;2.65;1.70;;;2.70;99.90;;;;;;2081109;28;20181;-65
2021/11/05 03:25:38;;;;;;;3.57;1.90;;;2.70;99.90;;;;;;2081231;28;20183;-66
2021/11/05 03:26:39;;;;;;;1.65;1.48;;;2.70;99.90;;;;;;2080963;28;20178;-64
2021/11/05 03:27:41;;;;;;;1.70;1.48;;;2.60;99.90;;;;;;2080932;28;20202;-65
2021/11/05 03:28:42;;;;;;;1.42;1.33;;;2.60;99.90;;;;;;2081055;28;20184;-65
2021/11/05 03:29:43;;;;;;;1.83;1.70;;;2.60;99.90;;;;;;2081175;28;20708;-65
2021/11/05 03:30:43;;;;;;;2.30;1.77;;;2.50;99.90;;;;;;2080997;28;20192;-65
2021/11/05 03:31:44;;;;;;;1.77;1.50;;;2.50;99.90;;;;;;2080960;28;20239;-64
2021/11/05 03:32:46;;;;;;;1.83;1.63;;;2.50;99.90;;;;;;2080941;28;20181;-65
2021/11/05 03:33:47;;;;;;;2.38;1.80;;;2.50;99.90;;;;;;2081154;28;20196;-65
2021/11/05 03:34:48;;;;;;;1.77;1.67;;;2.40;99.90;;;;;;2080898;28;20208;-65
2021/11/05 03:35:49;;;;;;;1.93;1.73;;;2.40;99.90;;;;;;2080927;28;20224;-65
2021/11/05 03:36:49;;;;;;;2.23;1.70;;;2.40;99.90;;;;;;2081032;28;20652;-64
2021/11/05 03:37:50;;;;;;;1.80;1.70;;;2.40;99.90;;;;;;2080974;28;20202;-65
2021/11/05 03:38:52;;;;;;;3.38;1.52;;;2.50;99.90;;;;;;2080999;28;20211;-65
2021/11/05 03:39:53;;;;;;;1.70;1.50;;;2.50;99.90;;;;;;2081064;28;20190;-65
2021/11/05 03:40:54;;;;;;;1.50;1.40;;;2.50;99.90;;;;;;2080994;28;20208;-65
2021/11/05 03:41:54;;;;;;;1.77;1.50;;;2.50;99.90;;;;;;2080925;28;20671;-65
2021/11/05 03:42:55;;;;;;;3.03;1.67;;;2.50;99.90;;;;;;2081580;28;20174;-65
2021/11/05 03:43:56;;;;;;;2.17;1.73;;;2.50;99.90;;;;;;2082582;28;20523;-65
2021/11/05 03:44:56;;;;;;;1.60;1.50;;;2.50;99.90;;;;;;2082438;28;20181;-64
2021/11/05 03:45:57;;;;;;;2.20;1.70;;;2.50;99.90;;;;;;2082538;28;20195;-64
2021/11/05 03:46:58;;;;;;;2.13;1.40;;;2.50;99.90;;;;;;2077037;28;20186;-65
2021/11/05 03:47:59;;;;;;;1.60;1.50;;;2.50;99.90;;;;;;2082368;28;20696;-64
2021/11/05 03:49:04;;;;;;;1.67;1.33;;;2.50;99.90;;;;;;2082412;28;20192;-65
2021/11/05 03:50:05;;;;;;;1.45;1.35;;;2.50;99.90;;;;;;2082053;28;20208;-65
2021/11/05 03:51:07;;;;;;;1.35;1.25;;;2.50;99.90;;;;;;2082276;28;20385;-65
2021/11/05 03:52:08;;;;;;;1.55;1.40;;;2.50;99.90;;;;;;2082531;28;20273;-65
2021/11/05 03:53:09;;;;;;;1.60;1.30;;;2.50;99.90;;;;;;2082390;28;20590;-64
2021/11/05 03:54:09;;;;;;;2.60;1.27;;;2.50;99.90;;;;;;2082354;28;20197;-65
2021/11/05 03:55:11;;;;;;;2.23;1.50;;;2.50;99.90;;;;;;2082246;28;20275;-65
2021/11/05 03:56:11;;;;;;;1.55;1.30;;;2.50;99.90;;;;;;2082254;28;20288;-65
2021/11/05 03:57:12;;;;;;;1.93;1.50;;;2.50;99.90;;;;;;2082295;28;20662;-65
2021/11/05 03:58:13;;;;;;;2.10;1.60;;;2.50;99.90;;;;;;2082535;28;20222;-65
2021/11/05 03:59:13;;;;;;;2.57;1.40;;;2.50;99.90;;;;;;2082185;28;20201;-63
2021/11/05 04:00:15;;;;;;;1.57;1.47;;;2.50;99.90;;;;;;2082288;28;20198;-65
2021/11/05 04:01:19;;;;;;;2.42;1.42;;;2.50;99.90;;;;;;2082045;28;20204;-65
2021/11/05 04:02:20;;;;;;;1.67;1.40;;;2.40;99.90;;;;;;2082268;28;20535;-64
2021/11/05 04:03:22;;;;;;;1.57;1.43;;;2.50;99.90;;;;;;2082231;28;20188;-65
2021/11/05 04:04:22;;;;;;;1.60;1.50;;;2.40;99.90;;;;;;2082324;28;20187;-64
2021/11/05 04:05:23;;;;;;;1.50;1.30;;;2.50;99.90;;;;;;2082286;28;20179;-64
2021/11/05 04:06:24;;;;;;;3.43;1.53;;;2.50;99.90;;;;;;2082090;28;20236;-64
2021/11/05 04:07:25;;;;;;;2.55;1.70;;;2.50;99.90;;;;;;2082046;28;20179;-65
2021/11/05 04:08:26;;;;;;;1.50;1.33;;;2.60;99.90;;;;;;2082295;28;20215;-64
2021/11/05 04:09:27;;;;;;;2.03;1.75;;;2.60;99.90;;;;;;2082207;28;20178;-65
2021/11/05 04:10:27;;;;;;;1.60;1.40;;;2.60;99.90;;;;;;2082206;28;20597;-64
2021/11/05 04:11:28;;;;;;;2.37;1.50;;;2.60;99.90;;;;;;2081849;28;20646;-65
2021/11/05 04:12:29;;;;;;;1.80;1.40;;;2.60;99.90;;;;;;2082147;28;20184;-64
2021/11/05 04:13:29;;;;;;;1.87;1.60;;;2.60;99.90;;;;;;2082161;28;20208;-65
2021/11/05 04:14:30;;;;;;;2.13;1.70;;;2.70;99.90;;;;;;2082113;28;20191;-65
2021/11/05 04:15:31;;;;;;;1.50;1.40;;;2.70;99.90;;;;;;2081849;28;20178;-65
2021/11/05 04:16:33;;;;;;;1.60;1.48;;;2.70;99.90;;;;;;2082164;28;20173;-65
2021/11/05 04:17:35;;;;;;;2.38;1.35;;;2.70;99.90;;;;;;2081985;28;20227;-64
2021/11/05 04:18:36;;;;;;;2.08;1.25;;;2.70;99.90;;;;;;2082103;28;20183;-64
2021/11/05 04:19:36;;;;;;;2.58;1.50;;;2.80;99.90;;;;;;2082122;28;20725;-65
2021/11/05 04:20:37;;;;;;;1.83;1.70;;;2.80;99.90;;;;;;2081934;28;20171;-65
2021/11/05 04:21:38;;;;;;;1.77;1.37;;;2.80;99.90;;;;;;2081829;28;20175;-64
2021/11/05 04:22:40;;;;;;;1.83;1.45;;;2.80;99.90;;;;;;2081401;28;20182;-65
2021/11/05 04:23:41;;;;;;;1.33;1.10;;;2.90;99.90;;;;;;2081620;28;20181;-65
2021/11/05 04:24:41;;;;;;;1.60;1.40;;;2.90;99.90;;;;;;2082131;28;20185;-65
2021/11/05 04:25:42;;;;;;;2.00;1.50;;;2.90;99.90;;;;;;2081937;28;20608;-64
2021/11/05 04:26:43;;;;;;;1.50;1.35;;;2.90;99.90;;;;;;2082051;28;20182;-65
2021/11/05 04:27:44;;;;;;;1.87;1.67;;;2.90;99.90;;;;;;2082063;28;20234;-65
2021/11/05 04:28:45;;;;;;;1.50;1.27;;;2.90;99.90;;;;;;2082012;28;20182;-64
2021/11/05 04:29:47;;;;;;;1.65;1.50;;;2.90;99.90;;;;;;2082066;28;20188;-64
2021/11/05 04:30:48;;;;;;;1.50;1.30;;;2.90;99.90;;;;;;2081928;28;20194;-65
2021/11/05 04:31:48;;;;;;;1.90;1.20;;;2.90;99.90;;;;;;2081746;28;20809;-64
2021/11/05 04:32:49;;;;;;;1.50;1.33;;;2.90;99.90;;;;;;2081901;28;20197;-64
2021/11/05 04:33:50;;;;;;;2.03;1.73;;;2.90;99.90;;;;;;2082119;28;20183;-65
2021/11/05 04:34:50;;;;;;;2.07;1.60;;;2.90;99.90;;;;;;2081971;28;20226;-64
2021/11/05 04:35:52;;;;;;;1.83;1.63;;;2.90;99.90;;;;;;2082008;28;20276;-65
2021/11/05 04:36:53;;;;;;;5.70;1.73;;;2.90;99.90;;;;;;2081891;28;20175;-65
2021/11/05 04:37:54;;;;;;;2.10;1.55;;;2.90;99.90;;;;;;2082004;28;20225;-65
2021/11/05 04:38:54;;;;;;;2.77;1.33;;;2.90;99.90;;;;;;2081896;28;20185;-65
2021/11/05 04:39:55;;;;;;;1.60;1.40;;;2.90;99.90;;;;;;2082017;28;20182;-65
2021/11/05 04:40:57;;;;;;;2.30;1.70;;;2.90;99.90;;;;;;2081834;28;20632;-65
2021/11/05 04:41:58;;;;;;;2.10;1.58;;;2.90;99.90;;;;;;2081529;28;20181;-65
2021/11/05 04:42:59;;;;;;;2.00;1.50;;;3.00;99.90;;;;;;2081939;28;20213;-65
2021/11/05 04:44:00;;;;;;;2.75;1.60;;;2.90;99.90;;;;;;2082129;28;20206;-64
2021/11/05 04:45:01;;;;;;;1.83;1.53;;;2.90;99.90;;;;;;2081939;28;20720;-65
2021/11/05 04:46:02;;;;;;;2.17;1.40;;;2.90;99.90;;;;;;2081931;28;20194;-65
2021/11/05 04:47:03;;;;;;;3.23;1.83;;;2.90;99.90;;;;;;2081953;28;20192;-65
2021/11/05 04:48:04;;;;;;;1.50;1.40;;;2.90;99.90;;;;;;2081859;28;20312;-66
2021/11/05 04:49:05;;;;;;;1.50;1.33;;;3.00;99.90;;;;;;2081747;28;20195;-64
2021/11/05 04:50:08;;;;;;;1.73;1.60;;;2.90;99.90;;;;;;2081882;28;20198;-65
2021/11/05 04:51:08;;;;;;;1.90;1.70;;;2.90;99.90;;;;;;2081418;28;20196;-65
2021/11/05 04:52:09;;;;;;;2.60;1.80;;;2.90;99.90;;;;;;2082014;28;20641;-65
2021/11/05 04:53:10;;;;;;;1.73;1.63;;;2.90;99.90;;;;;;2081694;28;20218;-64
2021/11/05 04:54:11;;;;;;;1.83;1.43;;;2.90;99.90;;;;;;2081332;28;20190;-64
2021/11/05 04:55:12;;;;;;;1.97;1.63;;;2.90;99.90;;;;;;2081652;28;20191;-65
2021/11/05 04:56:12;;;;;;;1.83;1.63;;;2.80;99.90;;;;;;2081785;28;20223;-65
2021/11/05 04:57:13;;;;;;;1.83;1.40;;;2.90;99.90;;;;;;2081662;28;20212;-63
2021/11/05 04:58:14;;;;;;;2.17;1.50;;;2.90;99.90;;;;;;2081633;28;20339;-65
2021/11/05 04:59:16;;;;;;;2.10;1.90;;;2.90;99.90;;;;;;2081807;28;20176;-65
2021/11/05 05:00:21;;;;;;;1.90;1.70;;;2.90;99.90;;;;;;2081579;28;20182;-64
2021/11/05 05:01:21;;;;;;;2.00;1.70;;;2.90;99.90;;;;;;2081478;28;20183;-64
2021/11/05 05:02:22;;;;;;;1.87;1.47;;;2.90;99.90;;;;;;2081733;28;20182;-65
2021/11/05 05:03:23;;;;;;;2.73;2.10;;;2.80;99.90;;;;;;2081647;28;20219;-65
2021/11/05 05:04:23;;;;;;;3.50;1.70;;;2.80;99.90;;;;;;2081649;28;20198;-64
2021/11/05 05:05:24;;;;;;;4.10;1.63;;;2.80;99.90;;;;;;2081702;28;20210;-65
2021/11/05 05:06:25;;;;;;;1.40;1.30;;;2.80;99.90;;;;;;2081612;28;20541;-65
2021/11/05 05:07:26;;;;;;;4.03;3.03;;;2.80;99.90;;;;;;2081717;28;20224;-64
2021/11/05 05:08:27;;;;;;;5.40;3.20;;;2.70;99.90;;;;;;2081664;28;20257;-65
2021/11/05 05:09:27;;;;;;;6.57;4.00;;;2.80;99.90;;;;;;2081560;28;20271;-65
2021/11/05 05:10:28;;;;;;;5.40;3.73;;;2.80;99.90;;;;;;2081632;28;20180;-65
2021/11/05 05:11:29;;;;;;;2.90;2.27;;;2.80;99.90;;;;;;2081548;28;20177;-64
2021/11/05 05:12:29;;;;;;;1.80;1.70;;;2.80;99.90;;;;;;2081650;28;20931;-64
2021/11/05 05:13:30;;;;;;;2.20;2.00;;;2.80;99.90;;;;;;2081610;28;20633;-65
2021/11/05 05:14:31;;;;;;;1.93;1.43;;;2.80;99.90;;;;;;2081252;28;20185;-65
2021/11/05 05:15:31;;;;;;;2.10;1.80;;;2.80;99.90;;;;;;2081835;28;20589;-65
2021/11/05 05:16:32;;;;;;;1.30;1.17;;;2.80;99.90;;;;;;2081582;28;20269;-64
2021/11/05 05:17:33;;;;;;;1.73;1.53;;;2.70;99.90;;;;;;2081520;28;20286;-64
2021/11/05 05:18:33;;;;;;;2.83;2.07;;;2.70;99.90;;;;;;2081586;28;20269;-65
2021/11/05 05:19:35;;;;;;;1.73;1.53;;;2.80;99.90;;;;;;2081614;28;20179;-65
2021/11/05 05:20:36;;;;;;;1.85;1.60;;;2.80;99.90;;;;;;2081490;28;20189;-65
2021/11/05 05:21:37;;;;;;;1.80;1.63;;;2.80;99.90;;;;;;2081386;28;20551;-64
2021/11/05 05:22:38;;;;;;;2.00;1.80;;;2.80;99.90;;;;;;2081494;28;20564;-64
2021/11/05 05:23:39;;;;;;;6.03;2.17;;;2.80;99.90;;;;;;2081515;28;20177;-64